Terminal Aerodrome Forecast
Issued by NWS Topeka, KS

Home | Current Version | Previous Version | Text Only | Print | Product List | Glossary Off
Versions: 1 2 3 4 5 6 7 8 9 10 11 12 13 14 15 16

000
FTUS43 KTOP 102156 AAA
TAFTOP
TAF AMD
KTOP 102156Z 1022/1118 31011KT P6SM FEW250
     FM110000 29004KT P6SM SKC
     FM111500 29017G26KT P6SM FEW250=

USA.gov is the U.S. government's official web portal to all federal, state and local government web resources and services.